Time;durP1;ratioP1;P1;durP2;ratioP2;P2;SDS_P1;SDS_P2;PMS_P1;PMS_P2;Temp;Humidity;BMP_temperature;BMP_pressure;BME280_temperature;BME280_humidity;BME280_pressure;Samples;Min_cycle;Max_cycle;Signal;HPM_P1;HPM_P2
2023/01/20 00:00:22;;;;;;;17.50;10.80;;;1.00;99.90;;;;;;6246348;23;20152;-84
2023/01/20 00:02:48;;;;;;;16.47;9.20;;;1.10;99.90;;;;;;6245556;23;20764;-84
2023/01/20 00:05:13;;;;;;;16.43;10.20;;;1.20;99.90;;;;;;6248008;23;20141;-82
2023/01/20 00:07:39;;;;;;;15.47;9.93;;;1.30;99.90;;;;;;6246333;23;20175;-79
2023/01/20 00:10:05;;;;;;;18.17;10.27;;;1.40;99.90;;;;;;6248522;23;20179;-86
2023/01/20 00:12:31;;;;;;;19.02;10.85;;;1.40;99.90;;;;;;6244355;23;20187;-84
2023/01/20 00:14:57;;;;;;;17.57;10.70;;;1.40;99.90;;;;;;6245044;23;20423;-79
2023/01/20 00:17:22;;;;;;;17.83;10.33;;;1.20;99.90;;;;;;6238570;22;20573;-84
2023/01/20 00:19:48;;;;;;;17.60;10.70;;;1.10;99.90;;;;;;6238041;23;20875;-86
2023/01/20 00:22:13;;;;;;;17.73;9.90;;;1.10;99.90;;;;;;6239744;22;20178;-79
2023/01/20 00:24:39;;;;;;;19.63;10.83;;;1.10;99.90;;;;;;6247253;22;20159;-84
2023/01/20 00:27:05;;;;;;;13.53;8.43;;;1.20;99.90;;;;;;6234289;23;20198;-81
2023/01/20 00:29:30;;;;;;;12.73;8.93;;;1.20;99.90;;;;;;6245971;22;20145;-83
2023/01/20 00:31:56;;;;;;;19.63;10.03;;;1.20;99.90;;;;;;6237180;23;20427;-84
2023/01/20 00:34:21;;;;;;;27.70;12.87;;;1.10;99.90;;;;;;6239286;23;20177;-80
2023/01/20 00:36:46;;;;;;;20.40;13.13;;;0.80;99.90;;;;;;6239727;23;20140;-82
2023/01/20 00:39:12;;;;;;;22.73;12.67;;;0.60;99.90;;;;;;6241298;23;20148;-82
2023/01/20 00:41:37;;;;;;;22.87;10.83;;;0.50;99.90;;;;;;6239503;23;20152;-81
2023/01/20 00:44:03;;;;;;;19.67;12.73;;;0.50;99.90;;;;;;6238191;23;20187;-83
2023/01/20 00:46:29;;;;;;;16.83;11.70;;;0.50;99.90;;;;;;6239899;23;20294;-80
2023/01/20 00:48:54;;;;;;;21.20;11.77;;;0.50;99.90;;;;;;6241164;23;20149;-81
2023/01/20 00:51:20;;;;;;;16.20;9.67;;;0.50;99.90;;;;;;6229892;23;20241;-82
2023/01/20 00:53:45;;;;;;;24.50;13.47;;;0.50;99.90;;;;;;6236836;23;20177;-83
2023/01/20 00:56:10;;;;;;;23.47;13.20;;;0.50;99.90;;;;;;6241835;23;20174;-83
2023/01/20 00:58:36;;;;;;;21.10;12.10;;;0.60;99.90;;;;;;6239543;23;20198;-82
2023/01/20 01:01:02;;;;;;;19.50;12.80;;;0.50;99.90;;;;;;6243575;23;20180;-81
2023/01/20 01:03:28;;;;;;;22.37;12.67;;;0.60;99.90;;;;;;6241761;23;20176;-81
2023/01/20 01:06:03;;;;;;;21.20;11.73;;;0.70;99.90;;;;;;6240841;23;20382;-84
2023/01/20 01:08:29;;;;;;;19.70;12.15;;;0.80;99.90;;;;;;6241426;22;20829;-81
2023/01/20 01:10:55;;;;;;;19.87;12.87;;;0.80;99.90;;;;;;6235804;23;20222;-83
2023/01/20 01:13:20;;;;;;;23.95;13.23;;;0.80;99.90;;;;;;6236310;23;20179;-83
2023/01/20 01:15:49;;;;;;;21.70;13.07;;;0.80;99.90;;;;;;6233622;23;20156;-82
2023/01/20 01:18:15;;;;;;;22.30;13.15;;;0.70;99.90;;;;;;6235535;23;20271;-82
2023/01/20 01:20:43;;;;;;;28.10;13.57;;;0.70;99.90;;;;;;6234907;23;20184;-82
2023/01/20 01:23:09;;;;;;;26.05;14.32;;;0.70;99.90;;;;;;6234883;23;20180;-83
2023/01/20 01:25:36;;;;;;;17.40;11.43;;;0.60;99.90;;;;;;6234040;23;20160;-81
2023/01/20 01:28:02;;;;;;;22.75;13.25;;;0.60;99.90;;;;;;6232296;23;20387;-84
2023/01/20 01:30:27;;;;;;;20.70;13.40;;;0.60;99.90;;;;;;6236849;23;20615;-84
2023/01/20 01:32:53;;;;;;;25.30;14.40;;;0.70;99.90;;;;;;6237524;23;20251;-82
2023/01/20 01:35:18;;;;;;;25.17;13.60;;;0.80;99.90;;;;;;6230514;23;20153;-82
2023/01/20 01:37:44;;;;;;;20.07;13.10;;;0.90;99.90;;;;;;6238021;23;20190;-83
2023/01/20 01:40:10;;;;;;;23.20;13.27;;;0.90;99.90;;;;;;6253776;22;20179;-81
2023/01/20 01:42:35;;;;;;;20.27;12.90;;;1.00;99.90;;;;;;6240498;23;20180;-83
2023/01/20 01:45:10;;;;;;;21.80;9.27;;;1.00;99.90;;;;;;6238800;23;20443;-83
2023/01/20 01:47:48;;;;;;;19.08;10.55;;;1.00;99.90;;;;;;6239455;23;20478;-82
2023/01/20 01:50:19;;;;;;;25.83;13.50;;;0.70;99.90;;;;;;6242768;23;20144;-82
2023/01/20 01:52:47;;;;;;;19.00;12.38;;;0.70;99.90;;;;;;6242842;22;20191;-83
2023/01/20 01:55:16;;;;;;;20.60;13.32;;;0.60;99.90;;;;;;6246524;22;20567;-83
2023/01/20 01:57:42;;;;;;;24.85;15.38;;;0.50;99.90;;;;;;6246213;22;20149;-83
2023/01/20 02:00:08;;;;;;;24.03;13.90;;;0.50;99.90;;;;;;6239561;23;20474;-83
2023/01/20 02:02:34;;;;;;;23.17;13.45;;;0.40;99.90;;;;;;6243912;23;20176;-83
2023/01/20 02:05:00;;;;;;;26.42;14.82;;;0.50;99.90;;;;;;6240780;23;20244;-83
2023/01/20 02:07:26;;;;;;;24.75;13.80;;;0.50;99.90;;;;;;6237969;23;20156;-82
2023/01/20 02:09:52;;;;;;;24.35;14.35;;;0.50;99.90;;;;;;6234447;23;20247;-83
2023/01/20 02:12:20;;;;;;;23.87;15.13;;;0.50;99.90;;;;;;6237569;23;20517;-84
2023/01/20 02:14:51;;;;;;;31.30;17.27;;;0.60;99.90;;;;;;6251717;22;20155;-83
2023/01/20 02:17:33;;;;;;;25.13;13.98;;;0.70;99.90;;;;;;6241876;23;20172;-81
2023/01/20 02:20:28;;;;;;;22.60;14.75;;;0.70;99.90;;;;;;6242240;23;20214;-86
2023/01/20 02:23:18;;;;;;;26.90;15.20;;;0.60;99.90;;;;;;6243052;22;20516;-82
2023/01/20 02:25:56;;;;;;;27.17;15.60;;;0.60;99.90;;;;;;6266762;22;20175;-85
2023/01/20 02:28:48;;;;;;;24.05;14.43;;;0.40;99.90;;;;;;6242015;23;20144;-83
2023/01/20 02:31:23;;;;;;;24.25;14.25;;;0.30;99.90;;;;;;6235934;23;20174;-83
2023/01/20 02:34:11;;;;;;;21.15;14.00;;;0.20;99.90;;;;;;6266907;22;20159;-80
2023/01/20 02:36:47;;;;;;;29.48;15.48;;;0.20;99.90;;;;;;6247748;22;20144;-83
2023/01/20 02:39:22;;;;;;;25.77;13.70;;;0.10;99.90;;;;;;6243197;23;20161;-84
2023/01/20 02:42:02;;;;;;;29.33;15.82;;;0.00;99.90;;;;;;6241009;23;20178;-83
2023/01/20 02:44:40;;;;;;;26.58;14.45;;;-0.10;99.90;;;;;;6240303;23;20182;-82
2023/01/20 02:47:16;;;;;;;30.83;17.25;;;-0.10;99.90;;;;;;6237504;23;20141;-81
2023/01/20 02:49:53;;;;;;;27.40;16.00;;;-0.20;99.90;;;;;;6239939;23;20151;-82
2023/01/20 02:52:30;;;;;;;30.88;16.65;;;-0.20;99.90;;;;;;6240430;23;20458;-84
2023/01/20 02:55:00;;;;;;;32.15;16.27;;;-0.20;99.90;;;;;;6247383;22;20155;-83
2023/01/20 02:57:42;;;;;;;37.38;18.38;;;-0.30;99.90;;;;;;6248347;22;20234;-84
2023/01/20 03:00:37;;;;;;;31.27;17.25;;;-0.20;99.90;;;;;;6242254;22;20133;-84
2023/01/20 03:03:08;;;;;;;29.60;16.60;;;-0.20;99.90;;;;;;6237346;23;20247;-81
2023/01/20 03:05:38;;;;;;;28.83;16.65;;;-0.20;99.90;;;;;;6241436;23;20176;-82
2023/01/20 03:08:07;;;;;;;29.52;17.75;;;0.00;99.90;;;;;;6241134;23;20153;-84
2023/01/20 03:10:35;;;;;;;32.00;17.83;;;0.10;99.90;;;;;;6237896;23;20156;-81
2023/01/20 03:13:18;;;;;;;24.45;14.60;;;0.30;99.90;;;;;;6236828;23;20176;-83
2023/01/20 03:16:01;;;;;;;28.92;15.73;;;0.30;99.90;;;;;;6234768;23;20351;-82
2023/01/20 03:18:32;;;;;;;36.25;17.48;;;0.10;99.90;;;;;;6237026;22;20167;-83
2023/01/20 03:20:59;;;;;;;27.90;15.70;;;0.10;99.90;;;;;;6236572;23;20173;-83
2023/01/20 03:23:29;;;;;;;26.48;16.80;;;0.20;99.90;;;;;;6236552;22;20168;-83
2023/01/20 03:25:55;;;;;;;30.10;15.95;;;0.30;99.90;;;;;;6233400;23;20152;-85
2023/01/20 03:28:21;;;;;;;26.30;15.90;;;0.40;99.90;;;;;;6239769;23;20504;-85
2023/01/20 03:30:47;;;;;;;26.90;16.33;;;0.40;99.90;;;;;;6242745;23;20180;-83
2023/01/20 03:33:14;;;;;;;24.33;14.37;;;0.40;99.90;;;;;;6241010;23;20169;-80
2023/01/20 03:35:40;;;;;;;22.40;14.10;;;0.50;99.90;;;;;;6243654;22;20371;-81
2023/01/20 03:38:06;;;;;;;28.13;15.80;;;0.70;99.90;;;;;;6244036;23;20156;-83
2023/01/20 03:40:39;;;;;;;24.97;15.50;;;0.80;99.90;;;;;;6242216;23;20435;-83
2023/01/20 03:43:31;;;;;;;27.25;14.98;;;0.80;99.90;;;;;;6240334;23;20177;-81
2023/01/20 03:46:05;;;;;;;27.98;13.38;;;0.80;99.90;;;;;;6243259;22;20161;-84
2023/01/20 03:48:45;;;;;;;22.73;13.48;;;0.70;99.90;;;;;;6242164;22;20202;-82
2023/01/20 03:51:45;;;;;;;22.52;13.57;;;0.70;99.90;;;;;;6244556;22;20172;-85
2023/01/20 03:54:17;;;;;;;27.40;12.95;;;0.50;99.90;;;;;;6242130;23;20199;-83
2023/01/20 03:56:46;;;;;;;22.73;13.30;;;0.30;99.90;;;;;;6239229;23;20168;-83
2023/01/20 03:59:14;;;;;;;25.42;14.10;;;0.20;99.90;;;;;;6242657;22;20149;-83
2023/01/20 04:01:42;;;;;;;26.58;14.27;;;0.10;99.90;;;;;;6234007;22;20153;-84
2023/01/20 04:04:13;;;;;;;27.83;14.95;;;0.20;99.90;;;;;;6248124;22;20237;-80
2023/01/20 04:06:40;;;;;;;26.55;14.60;;;0.30;99.90;;;;;;6243024;23;20148;-81
2023/01/20 04:09:10;;;;;;;23.80;14.68;;;0.40;99.90;;;;;;6242541;23;20156;-84
2023/01/20 04:11:35;;;;;;;20.23;13.32;;;0.50;99.90;;;;;;6253337;22;20169;-80
2023/01/20 04:14:01;;;;;;;22.87;13.63;;;0.60;99.90;;;;;;6245892;22;20237;-83
2023/01/20 04:16:27;;;;;;;22.00;14.10;;;0.70;99.90;;;;;;6243180;23;20151;-82
2023/01/20 04:18:53;;;;;;;23.43;14.60;;;0.70;99.90;;;;;;6239928;23;20180;-83
2023/01/20 04:21:37;;;;;;;17.73;12.23;;;0.70;99.90;;;;;;6239811;23;20156;-83
2023/01/20 04:24:12;;;;;;;24.92;14.20;;;0.70;99.90;;;;;;6242552;23;20194;-84
2023/01/20 04:26:38;;;;;;;27.63;14.75;;;0.70;99.90;;;;;;6237062;23;20170;-81
2023/01/20 04:29:07;;;;;;;25.30;15.77;;;0.70;99.90;;;;;;6235771;23;20601;-82
2023/01/20 04:31:34;;;;;;;29.17;15.40;;;0.70;99.90;;;;;;6237882;23;20722;-81
2023/01/20 04:34:00;;;;;;;26.55;15.20;;;0.70;99.90;;;;;;6241504;22;20164;-81
2023/01/20 04:36:26;;;;;;;27.00;16.15;;;0.60;99.90;;;;;;6243763;22;20611;-83
2023/01/20 04:38:51;;;;;;;35.10;18.30;;;0.50;99.90;;;;;;6240487;23;20187;-82
2023/01/20 04:41:17;;;;;;;29.30;15.60;;;0.40;99.90;;;;;;6240353;23;20235;-81
2023/01/20 04:43:45;;;;;;;32.83;17.70;;;0.20;99.90;;;;;;6243315;23;20168;-81
2023/01/20 04:46:15;;;;;;;28.45;17.77;;;0.20;99.90;;;;;;6238987;23;20152;-83
2023/01/20 04:48:41;;;;;;;37.15;18.40;;;0.00;99.90;;;;;;6240430;23;20167;-83
2023/01/20 04:51:07;;;;;;;34.17;17.33;;;0.00;99.90;;;;;;6243867;22;20168;-84
2023/01/20 04:53:33;;;;;;;31.50;15.65;;;-0.10;99.90;;;;;;6237809;23;20180;-83
2023/01/20 04:55:59;;;;;;;26.90;15.25;;;-0.10;99.90;;;;;;6239317;23;20834;-83
2023/01/20 04:58:25;;;;;;;31.57;14.43;;;-0.10;99.90;;;;;;6243397;23;20140;-81
2023/01/20 05:00:50;;;;;;;24.70;12.80;;;-0.10;99.90;;;;;;6241401;23;20172;-82
2023/01/20 05:03:16;;;;;;;33.07;13.60;;;-0.20;99.90;;;;;;6237652;23;20177;-83
2023/01/20 05:05:41;;;;;;;27.90;14.60;;;-0.30;99.90;;;;;;6239394;23;20167;-84
2023/01/20 05:08:07;;;;;;;21.77;12.40;;;-0.30;99.90;;;;;;6242703;23;20167;-84
2023/01/20 05:10:33;;;;;;;24.63;12.27;;;-0.30;99.90;;;;;;6242244;23;20154;-81
2023/01/20 05:12:58;;;;;;;20.50;11.07;;;-0.30;99.90;;;;;;6244515;23;20165;-82
2023/01/20 05:15:24;;;;;;;24.30;14.47;;;-0.30;99.90;;;;;;6241596;23;20968;-83
2023/01/20 05:17:49;;;;;;;24.43;13.77;;;-0.30;99.90;;;;;;6241550;23;20391;-84
2023/01/20 05:20:17;;;;;;;24.30;11.83;;;-0.40;99.90;;;;;;6244547;23;20199;-82
2023/01/20 05:22:43;;;;;;;26.10;14.00;;;-0.40;99.90;;;;;;6242034;23;20176;-84
2023/01/20 05:25:09;;;;;;;24.73;12.63;;;-0.40;99.90;;;;;;6242359;22;20149;-82
2023/01/20 05:27:35;;;;;;;31.13;12.13;;;-0.40;99.90;;;;;;6250236;22;20382;-80
2023/01/20 05:30:00;;;;;;;33.72;11.60;;;-0.40;99.90;;;;;;6241575;22;20157;-81
2023/01/20 05:32:26;;;;;;;21.90;12.60;;;-0.40;99.90;;;;;;6235183;23;20665;-83
2023/01/20 05:34:51;;;;;;;22.20;12.33;;;-0.40;99.90;;;;;;6238583;23;20194;-83
2023/01/20 05:37:17;;;;;;;25.23;13.37;;;-0.40;99.90;;;;;;6239764;23;20664;-83
2023/01/20 05:39:42;;;;;;;32.70;17.40;;;-0.30;99.90;;;;;;6234442;23;20149;-81
2023/01/20 05:42:08;;;;;;;24.87;14.30;;;-0.20;99.90;;;;;;6237200;23;20211;-81
2023/01/20 05:44:34;;;;;;;23.13;13.57;;;-0.20;99.90;;;;;;6240106;23;20593;-83
2023/01/20 05:47:01;;;;;;;25.13;15.63;;;-0.10;99.90;;;;;;6235886;22;20244;-82
2023/01/20 05:49:26;;;;;;;28.70;17.30;;;0.00;99.90;;;;;;6240938;23;20149;-83
2023/01/20 05:51:52;;;;;;;29.43;17.03;;;0.10;99.90;;;;;;6240930;23;20681;-83
2023/01/20 05:54:18;;;;;;;33.47;16.20;;;0.10;99.90;;;;;;6242628;23;20168;-85
2023/01/20 05:56:43;;;;;;;22.37;14.90;;;0.10;99.90;;;;;;6253223;23;20187;-83
2023/01/20 05:59:09;;;;;;;25.20;14.90;;;0.00;99.90;;;;;;6246488;23;20140;-81
2023/01/20 06:01:35;;;;;;;26.83;15.23;;;0.00;99.90;;;;;;6241124;23;20160;-82
2023/01/20 06:04:00;;;;;;;28.27;16.30;;;0.00;99.90;;;;;;6241955;23;20254;-81
2023/01/20 06:06:26;;;;;;;19.50;14.37;;;0.00;99.90;;;;;;6239387;23;20491;-86
2023/01/20 06:08:52;;;;;;;25.47;14.40;;;0.00;99.90;;;;;;6245552;23;20149;-85
2023/01/20 06:11:17;;;;;;;26.67;15.43;;;0.00;99.90;;;;;;6246067;23;20184;-82
2023/01/20 06:13:46;;;;;;;24.70;13.57;;;0.00;99.90;;;;;;6243527;23;20479;-84
2023/01/20 06:16:11;;;;;;;28.73;18.02;;;0.00;99.90;;;;;;6241850;23;20376;-81
2023/01/20 06:18:37;;;;;;;32.37;18.40;;;0.10;99.90;;;;;;6245859;23;20170;-83
2023/01/20 06:21:02;;;;;;;31.30;17.80;;;0.20;99.90;;;;;;6245870;23;20253;-85
2023/01/20 06:23:28;;;;;;;37.93;17.77;;;0.30;99.90;;;;;;6247819;23;20491;-83
2023/01/20 06:26:05;;;;;;;33.70;17.40;;;0.30;99.90;;;;;;6241554;23;20263;-82
2023/01/20 06:28:34;;;;;;;26.83;16.83;;;0.20;99.90;;;;;;6239308;23;20156;-83
2023/01/20 06:31:08;;;;;;;26.08;14.70;;;0.20;99.90;;;;;;6241141;23;20637;-80
2023/01/20 06:33:34;;;;;;;28.95;14.60;;;0.10;99.90;;;;;;6262083;22;20180;-81
2023/01/20 06:36:01;;;;;;;21.08;13.32;;;0.00;99.90;;;;;;6247240;22;20203;-82
2023/01/20 06:38:30;;;;;;;26.92;13.93;;;-0.20;99.90;;;;;;6241457;23;20407;-82
2023/01/20 06:40:57;;;;;;;28.35;16.23;;;-0.40;99.90;;;;;;6241142;22;20141;-81
2023/01/20 06:43:23;;;;;;;24.52;14.57;;;-0.30;99.90;;;;;;6256962;22;20183;-84
2023/01/20 06:45:49;;;;;;;25.07;15.37;;;-0.30;99.90;;;;;;6243856;22;20473;-85
2023/01/20 06:48:14;;;;;;;25.10;15.20;;;-0.30;99.90;;;;;;6246828;23;20359;-83
2023/01/20 06:50:40;;;;;;;20.37;13.63;;;-0.40;99.90;;;;;;6241129;23;20693;-83
2023/01/20 06:53:05;;;;;;;30.37;18.17;;;-0.50;99.90;;;;;;6238330;23;20176;-83
2023/01/20 06:55:31;;;;;;;29.67;15.30;;;-0.60;99.90;;;;;;6241039;23;20913;-83
2023/01/20 06:57:56;;;;;;;19.83;12.63;;;-0.80;99.90;;;;;;6241889;23;20145;-82
2023/01/20 07:00:22;;;;;;;25.73;14.27;;;-1.00;99.90;;;;;;6240775;23;20187;-81
2023/01/20 07:02:48;;;;;;;30.38;15.65;;;-1.10;99.90;;;;;;6238334;23;20445;-84
2023/01/20 07:05:14;;;;;;;30.77;15.20;;;-1.20;99.90;;;;;;6238771;22;20148;-80
2023/01/20 07:07:43;;;;;;;19.77;12.63;;;-1.20;99.90;;;;;;6234198;23;20457;-83
2023/01/20 07:10:09;;;;;;;30.10;13.70;;;-1.30;99.90;;;;;;6240438;22;20174;-81
2023/01/20 07:12:35;;;;;;;25.65;14.43;;;-1.30;99.90;;;;;;6237415;23;20188;-81
2023/01/20 07:15:00;;;;;;;23.63;12.90;;;-1.40;99.90;;;;;;6238806;23;20182;-80
2023/01/20 07:17:26;;;;;;;24.73;12.47;;;-1.50;99.90;;;;;;6240725;23;20604;-83
2023/01/20 07:19:51;;;;;;;24.23;12.13;;;-1.60;99.90;;;;;;6238033;23;20153;-82
2023/01/20 07:22:17;;;;;;;21.30;11.20;;;-1.80;99.90;;;;;;6237497;23;20220;-81
2023/01/20 07:24:42;;;;;;;21.60;13.00;;;-1.90;99.90;;;;;;6236940;23;20152;-81
2023/01/20 07:27:08;;;;;;;21.10;11.07;;;-1.90;99.90;;;;;;6240841;23;20183;-81
2023/01/20 07:29:33;;;;;;;16.33;10.63;;;-1.90;99.90;;;;;;6238787;23;20165;-81
2023/01/20 07:31:59;;;;;;;22.47;12.10;;;-1.90;99.90;;;;;;6237638;23;20198;-84
2023/01/20 07:34:24;;;;;;;16.53;10.70;;;-1.90;99.90;;;;;;6235192;23;20168;-82
2023/01/20 07:36:53;;;;;;;19.60;10.20;;;-1.90;99.90;;;;;;6235709;23;20239;-84
2023/01/20 07:39:19;;;;;;;20.70;11.82;;;-1.90;99.90;;;;;;6234852;23;20202;-81
2023/01/20 07:41:47;;;;;;;25.40;13.20;;;-1.80;99.90;;;;;;6237482;22;20228;-84
2023/01/20 07:44:14;;;;;;;27.63;15.07;;;-1.80;99.90;;;;;;6236218;23;20413;-83
2023/01/20 07:46:39;;;;;;;21.80;15.25;;;-1.80;99.90;;;;;;6254192;22;20268;-81
2023/01/20 07:49:05;;;;;;;18.90;12.60;;;-1.90;99.90;;;;;;6236049;23;20194;-82
2023/01/20 07:51:31;;;;;;;22.10;12.50;;;-1.90;99.90;;;;;;6238606;23;20214;-83
2023/01/20 07:53:56;;;;;;;25.43;14.10;;;-1.80;99.90;;;;;;6235341;23;20249;-82
2023/01/20 07:56:24;;;;;;;17.60;10.37;;;-1.70;99.90;;;;;;6238649;23;20931;-84
2023/01/20 07:58:50;;;;;;;19.98;9.75;;;-1.70;99.90;;;;;;6236947;22;20145;-83
2023/01/20 08:01:28;;;;;;;17.95;9.73;;;-1.80;99.90;;;;;;6234749;23;20144;-82
2023/01/20 08:03:54;;;;;;;23.20;12.98;;;-1.70;99.90;;;;;;6249311;22;20207;-85
2023/01/20 08:06:22;;;;;;;18.63;11.02;;;-1.70;99.90;;;;;;6224418;23;20239;-82
2023/01/20 08:08:48;;;;;;;26.50;11.68;;;-1.70;99.90;;;;;;6230282;23;20889;-83
2023/01/20 08:11:15;;;;;;;20.13;11.43;;;-1.50;99.90;;;;;;6230299;23;20203;-81
2023/01/20 08:13:41;;;;;;;25.83;12.60;;;-1.40;99.90;;;;;;6233695;22;20448;-83
2023/01/20 08:16:11;;;;;;;17.25;11.40;;;-1.30;99.90;;;;;;6230350;23;20156;-82
2023/01/20 08:18:37;;;;;;;17.40;10.60;;;-1.20;99.90;;;;;;6233369;22;20904;-82
2023/01/20 08:21:06;;;;;;;21.23;10.73;;;-1.00;99.90;;;;;;6247122;22;20132;-84
2023/01/20 08:23:33;;;;;;;20.25;8.98;;;-0.60;99.90;;;;;;6239634;22;20558;-83
2023/01/20 08:26:00;;;;;;;16.13;9.98;;;-0.20;99.90;;;;;;6234310;22;20153;-84
2023/01/20 08:28:27;;;;;;;16.10;9.20;;;0.30;99.90;;;;;;6235113;23;20156;-82
2023/01/20 08:30:52;;;;;;;23.90;9.57;;;1.20;99.90;;;;;;6235390;23;20577;-83
2023/01/20 08:33:18;;;;;;;24.80;9.07;;;2.50;99.90;;;;;;6235244;23;20179;-83
2023/01/20 08:35:43;;;;;;;11.77;7.13;;;4.00;99.90;;;;;;6235588;23;20180;-81
2023/01/20 08:38:09;;;;;;;16.77;7.43;;;5.40;99.90;;;;;;6240587;23;20160;-82
2023/01/20 08:40:34;;;;;;;10.87;7.13;;;6.70;99.90;;;;;;6235856;23;20160;-82
2023/01/20 08:43:00;;;;;;;12.70;8.70;;;7.80;99.90;;;;;;6237356;22;20179;-81
2023/01/20 08:45:26;;;;;;;12.90;8.60;;;8.70;99.90;;;;;;6239379;22;20226;-81
2023/01/20 08:47:52;;;;;;;13.80;7.97;;;9.50;99.90;;;;;;6240431;23;20390;-84
2023/01/20 08:50:17;;;;;;;14.13;9.43;;;10.00;99.90;;;;;;6233943;23;20152;-81
2023/01/20 08:52:43;;;;;;;12.20;8.63;;;10.90;99.90;;;;;;6237175;22;20216;-84
2023/01/20 08:55:09;;;;;;;10.37;7.50;;;11.80;99.90;;;;;;6233111;23;20179;-82
2023/01/20 08:57:35;;;;;;;13.68;11.35;;;12.70;99.90;;;;;;6236018;23;20190;-84
2023/01/20 09:00:03;;;;;;;21.42;13.18;;;12.40;99.90;;;;;;6237175;23;20227;-83
2023/01/20 09:02:29;;;;;;;15.55;10.95;;;12.60;99.90;;;;;;6236552;22;20712;-83
2023/01/20 09:04:55;;;;;;;14.23;8.70;;;13.40;99.90;;;;;;6233854;23;20282;-80
2023/01/20 09:07:20;;;;;;;18.23;11.90;;;14.10;97.50;;;;;;6235967;23;20219;-82
2023/01/20 09:09:46;;;;;;;30.70;18.80;;;14.70;96.10;;;;;;6233377;23;20182;-81
2023/01/20 09:12:12;;;;;;;30.43;21.20;;;15.30;94.20;;;;;;6235236;23;20649;-82
2023/01/20 09:14:38;;;;;;;16.70;11.07;;;14.00;89.20;;;;;;6234844;23;20176;-81
2023/01/20 09:17:03;;;;;;;17.08;9.90;;;13.40;91.00;;;;;;6234489;23;20200;-82
2023/01/20 09:19:29;;;;;;;18.00;8.97;;;12.70;90.90;;;;;;6251231;22;20156;-80
2023/01/20 09:21:55;;;;;;;11.50;8.60;;;13.20;92.00;;;;;;6237679;22;20290;-82
2023/01/20 09:24:21;;;;;;;14.20;9.97;;;13.80;90.80;;;;;;6235774;23;20172;-82
2023/01/20 09:26:48;;;;;;;12.73;9.40;;;13.70;90.20;;;;;;6233660;23;20745;-81
2023/01/20 09:29:16;;;;;;;13.98;10.02;;;13.90;90.60;;;;;;6231890;23;20145;-81
2023/01/20 09:31:56;;;;;;;12.03;8.30;;;14.50;90.80;;;;;;6236032;22;20198;-83
2023/01/20 09:34:23;;;;;;;16.00;8.70;;;15.20;90.10;;;;;;6235522;23;20407;-81
2023/01/20 09:46:07;;;;;;;14.83;11.30;;;13.60;81.90;;;;;;6235096;23;20362;-82
2023/01/20 09:55:01;;;;;;;16.13;10.55;;;10.30;88.50;;;;;;6242987;23;20222;-83
2023/01/20 09:57:32;;;;;;;20.38;12.10;;;9.20;91.30;;;;;;6244274;22;20188;-84
2023/01/20 10:00:06;;;;;;;16.40;10.52;;;8.50;93.00;;;;;;6238713;23;20144;-84
2023/01/20 10:02:35;;;;;;;17.88;11.57;;;7.20;95.00;;;;;;6238623;23;20149;-81
2023/01/20 10:05:12;;;;;;;13.48;9.98;;;6.20;98.10;;;;;;6242522;22;20156;-80
2023/01/20 10:07:45;;;;;;;15.45;11.02;;;5.60;99.90;;;;;;6247608;22;20133;-81
2023/01/20 10:10:22;;;;;;;24.05;13.27;;;5.60;99.90;;;;;;6246472;23;20156;-84
2023/01/20 10:13:02;;;;;;;19.38;10.95;;;5.70;99.90;;;;;;6237952;22;20187;-84
2023/01/20 10:15:43;;;;;;;15.38;10.18;;;5.60;99.90;;;;;;6238869;22;20175;-83
2023/01/20 10:18:28;;;;;;;19.75;11.73;;;5.60;99.90;;;;;;6226702;23;20274;-82
2023/01/20 10:21:06;;;;;;;14.95;10.70;;;5.60;99.90;;;;;;6235272;23;20144;-82
2023/01/20 10:23:55;;;;;;;17.80;11.50;;;5.50;99.90;;;;;;6236316;23;20262;-83
2023/01/20 10:26:29;;;;;;;17.42;10.75;;;5.60;99.90;;;;;;6230352;23;20145;-81
2023/01/20 10:29:02;;;;;;;17.50;10.05;;;5.30;99.90;;;;;;6233168;23;20335;-82
2023/01/20 10:31:36;;;;;;;15.48;9.88;;;5.10;99.90;;;;;;6237532;22;20180;-84
2023/01/20 10:34:11;;;;;;;22.02;10.77;;;4.70;99.90;;;;;;6254434;22;20165;-80
2023/01/20 10:36:42;;;;;;;17.63;10.00;;;4.30;99.90;;;;;;6243802;22;20136;-83
2023/01/20 10:39:53;;;;;;;19.42;10.52;;;4.20;99.90;;;;;;6235269;23;20145;-83
2023/01/20 10:42:19;;;;;;;18.50;10.40;;;4.20;99.90;;;;;;6235101;23;20661;-84
2023/01/20 10:44:46;;;;;;;18.40;11.18;;;4.20;99.90;;;;;;6236528;22;20144;-81
2023/01/20 10:47:50;;;;;;;24.23;10.38;;;3.90;99.90;;;;;;6237295;23;20230;-83
2023/01/20 10:50:36;;;;;;;14.82;10.80;;;3.60;99.90;;;;;;6236255;23;20229;-82
2023/01/20 10:53:16;;;;;;;17.65;10.45;;;3.40;99.90;;;;;;6235949;23;20191;-82
2023/01/20 10:56:12;;;;;;;17.70;10.77;;;3.30;99.90;;;;;;6237787;22;20144;-81
2023/01/20 10:58:43;;;;;;;19.77;10.55;;;3.30;99.90;;;;;;6246203;23;20925;-84
2023/01/20 11:01:14;;;;;;;21.00;13.23;;;3.30;99.90;;;;;;6234283;23;20153;-82
2023/01/20 11:03:44;;;;;;;19.50;10.93;;;3.50;99.90;;;;;;6236632;22;20702;-82
2023/01/20 11:06:24;;;;;;;18.73;11.35;;;3.60;99.90;;;;;;6234557;23;20176;-83
2023/01/20 11:08:49;;;;;;;17.17;10.68;;;3.80;99.90;;;;;;6235844;23;20175;-81
2023/01/20 11:11:19;;;;;;;19.80;10.73;;;3.70;99.90;;;;;;6237246;23;20168;-84
2023/01/20 11:13:45;;;;;;;17.27;10.38;;;3.80;99.90;;;;;;6236268;23;20414;-82
2023/01/20 11:16:27;;;;;;;15.50;10.77;;;3.80;99.90;;;;;;6235609;23;20156;-80
2023/01/20 11:19:01;;;;;;;17.80;11.00;;;3.90;99.90;;;;;;6233483;22;20888;-80
2023/01/20 11:21:30;;;;;;;17.58;10.20;;;3.80;99.90;;;;;;6230514;22;20143;-82
2023/01/20 11:23:56;;;;;;;13.65;9.27;;;3.80;99.90;;;;;;6238011;22;20168;-81
2023/01/20 11:26:33;;;;;;;20.25;9.30;;;4.00;99.90;;;;;;6236881;23;20164;-83
2023/01/20 11:29:09;;;;;;;19.27;9.25;;;4.30;99.90;;;;;;6244068;22;20216;-83
2023/01/20 11:31:55;;;;;;;15.63;9.30;;;4.60;99.90;;;;;;6238919;23;20271;-82
2023/01/20 11:34:21;;;;;;;13.82;9.25;;;4.80;99.90;;;;;;6234795;22;20259;-82
2023/01/20 11:36:47;;;;;;;17.10;9.60;;;4.80;99.90;;;;;;6235650;22;20168;-84
2023/01/20 11:39:29;;;;;;;17.27;10.55;;;4.70;99.90;;;;;;6234630;23;20152;-83
2023/01/20 11:42:20;;;;;;;16.95;10.25;;;4.90;99.90;;;;;;6238474;22;20285;-82
2023/01/20 11:44:49;;;;;;;26.60;10.60;;;5.00;99.90;;;;;;6232807;22;20214;-80
2023/01/20 11:47:30;;;;;;;14.65;9.10;;;4.70;99.90;;;;;;6236776;22;20152;-82
2023/01/20 11:50:08;;;;;;;14.30;9.10;;;4.40;99.90;;;;;;6252284;22;20129;-83
2023/01/20 11:52:39;;;;;;;15.88;9.48;;;4.30;99.90;;;;;;6236348;23;20195;-82
2023/01/20 11:55:20;;;;;;;12.80;8.35;;;4.60;99.90;;;;;;6234815;23;20444;-82
2023/01/20 11:58:01;;;;;;;11.32;7.40;;;4.90;99.90;;;;;;6235529;23;20148;-83
2023/01/20 12:00:41;;;;;;;14.00;9.57;;;5.20;99.90;;;;;;6234463;23;20144;-81
2023/01/20 12:03:47;;;;;;;11.50;7.10;;;5.50;99.90;;;;;;6234191;23;20184;-82
2023/01/20 12:06:19;;;;;;;13.65;8.40;;;5.80;99.90;;;;;;6234964;23;20660;-82
2023/01/20 12:09:05;;;;;;;10.07;5.80;;;6.10;99.90;;;;;;6233927;23;20662;-83
2023/01/20 12:11:35;;;;;;;14.00;7.90;;;5.80;99.90;;;;;;6235974;22;20168;-81
2023/01/20 12:14:23;;;;;;;8.40;6.63;;;5.90;99.90;;;;;;6242682;22;20164;-81
2023/01/20 12:17:16;;;;;;;10.95;6.47;;;6.00;99.90;;;;;;6234525;23;20153;-82
2023/01/20 12:19:52;;;;;;;13.88;6.90;;;5.80;99.90;;;;;;6232447;23;20160;-82
2023/01/20 12:22:24;;;;;;;12.00;6.10;;;5.70;99.90;;;;;;6233455;23;20962;-82
2023/01/20 12:25:06;;;;;;;5.18;4.00;;;5.90;99.90;;;;;;6235980;23;20911;-83
2023/01/20 12:27:33;;;;;;;8.30;5.00;;;6.20;99.90;;;;;;6236314;22;20141;-81
2023/01/20 12:30:06;;;;;;;9.18;5.30;;;6.40;99.90;;;;;;6237933;22;20220;-81
2023/01/20 12:32:32;;;;;;;8.82;5.20;;;6.30;99.90;;;;;;6238249;22;20634;-81
2023/01/20 12:34:58;;;;;;;10.00;5.10;;;6.10;99.90;;;;;;6239975;23;20152;-83
2023/01/20 12:37:29;;;;;;;7.53;5.25;;;6.20;99.90;;;;;;6240939;22;20942;-83
2023/01/20 12:40:18;;;;;;;9.02;4.70;;;6.40;99.90;;;;;;6234971;23;20140;-81
2023/01/20 12:43:13;;;;;;;6.00;3.80;;;6.40;99.90;;;;;;6240113;22;20176;-80
2023/01/20 12:46:21;;;;;;;6.10;3.88;;;6.30;99.90;;;;;;6238874;22;20221;-79
2023/01/20 12:49:10;;;;;;;6.82;3.33;;;5.90;99.90;;;;;;6240415;22;20189;-83
2023/01/20 12:52:21;;;;;;;8.60;4.65;;;4.80;99.90;;;;;;6239021;22;20171;-82
2023/01/20 12:55:21;;;;;;;13.20;5.20;;;4.20;99.90;;;;;;6232099;22;20160;-83
2023/01/20 12:57:58;;;;;;;11.82;4.93;;;3.80;99.90;;;;;;6238638;22;20157;-83
2023/01/20 13:00:36;;;;;;;6.47;4.22;;;3.50;99.90;;;;;;6237884;22;20125;-82
2023/01/20 13:03:39;;;;;;;9.05;3.90;;;3.30;99.90;;;;;;6245585;23;20270;-81
2023/01/20 13:06:31;;;;;;;15.52;4.55;;;3.20;99.90;;;;;;6243867;22;20158;-81
2023/01/20 13:09:21;;;;;;;15.80;4.80;;;3.10;99.90;;;;;;6236655;22;20904;-82